sensor_id;sensor_type;location;lat;lon;timestamp;pressure;altitude;pressure_sealevel;temperature;humidity
6827;BME280;3451;52.476;13.316;2022-07-23T00:01:24;88723.56;;;-145.19;100.00
6827;BME280;3451;52.476;13.316;2022-07-23T00:03:53;89510.22;;;-145.19;100.00
6827;BME280;3451;52.476;13.316;2022-07-23T00:06:21;90559.31;;;-145.19;100.00
6827;BME280;3451;52.476;13.316;2022-07-23T00:08:48;90297.00;;;-145.19;100.00
6827;BME280;3451;52.476;13.316;2022-07-23T00:11:15;91346.31;;;-145.19;100.00
6827;BME280;3451;52.476;13.316;2022-07-23T00:13:42;90821.63;;;-145.19;100.00
6827;BME280;3451;52.476;13.316;2022-07-23T00:16:08;90821.63;;;-145.19;100.00
6827;BME280;3451;52.476;13.316;2022-07-23T00:18:35;90559.31;;;-145.19;100.00
6827;BME280;3451;52.476;13.316;2022-07-23T00:21:01;90297.00;;;-145.19;100.00
6827;BME280;3451;52.476;13.316;2022-07-23T00:23:28;89772.47;;;-145.19;100.00
6827;BME280;3451;52.476;13.316;2022-07-23T00:25:55;89510.22;;;-145.19;100.00
6827;BME280;3451;52.476;13.316;2022-07-23T00:28:21;90034.72;;;-145.19;100.00
6827;BME280;3451;52.476;13.316;2022-07-23T00:30:48;90559.31;;;-145.19;100.00
6827;BME280;3451;52.476;13.316;2022-07-23T00:33:15;90821.63;;;-145.19;100.00
6827;BME280;3451;52.476;13.316;2022-07-23T00:35:42;90297.00;;;-145.19;100.00
6827;BME280;3451;52.476;13.316;2022-07-23T00:38:10;90559.31;;;-145.19;100.00
6827;BME280;3451;52.476;13.316;2022-07-23T00:40:37;90559.31;;;-145.19;100.00
6827;BME280;3451;52.476;13.316;2022-07-23T00:43:04;90559.31;;;-145.19;100.00
6827;BME280;3451;52.476;13.316;2022-07-23T00:45:31;90297.00;;;-145.19;100.00
6827;BME280;3451;52.476;13.316;2022-07-23T00:47:58;90559.31;;;-145.19;100.00
6827;BME280;3451;52.476;13.316;2022-07-23T00:50:25;90821.63;;;-145.19;100.00
6827;BME280;3451;52.476;13.316;2022-07-23T00:52:52;91083.97;;;-145.19;100.00
6827;BME280;3451;52.476;13.316;2022-07-23T00:55:18;91608.69;;;-145.19;100.00
6827;BME280;3451;52.476;13.316;2022-07-23T00:57:45;90559.31;;;-145.19;100.00
6827;BME280;3451;52.476;13.316;2022-07-23T01:00:13;90297.00;;;-145.19;100.00
6827;BME280;3451;52.476;13.316;2022-07-23T01:02:41;90034.72;;;-145.19;100.00
6827;BME280;3451;52.476;13.316;2022-07-23T01:05:09;89772.47;;;-145.19;100.00
6827;BME280;3451;52.476;13.316;2022-07-23T01:07:36;89510.22;;;-145.19;100.00
6827;BME280;3451;52.476;13.316;2022-07-23T01:10:04;89772.47;;;-145.19;100.00
6827;BME280;3451;52.476;13.316;2022-07-23T01:12:32;89772.47;;;-145.19;100.00
6827;BME280;3451;52.476;13.316;2022-07-23T01:14:59;89772.47;;;-145.19;100.00
6827;BME280;3451;52.476;13.316;2022-07-23T01:17:26;90034.72;;;-145.19;100.00
6827;BME280;3451;52.476;13.316;2022-07-23T01:19:54;90034.72;;;-145.19;100.00
6827;BME280;3451;52.476;13.316;2022-07-23T01:22:21;90034.72;;;-145.19;100.00
6827;BME280;3451;52.476;13.316;2022-07-23T01:24:47;90297.00;;;-145.19;100.00
6827;BME280;3451;52.476;13.316;2022-07-23T01:27:14;90821.63;;;-145.19;100.00
6827;BME280;3451;52.476;13.316;2022-07-23T01:29:40;90559.31;;;-145.19;100.00
6827;BME280;3451;52.476;13.316;2022-07-23T01:32:07;90297.00;;;-145.19;100.00
6827;BME280;3451;52.476;13.316;2022-07-23T01:34:33;90297.00;;;-145.19;100.00
6827;BME280;3451;52.476;13.316;2022-07-23T01:37:00;90559.31;;;-145.19;100.00
6827;BME280;3451;52.476;13.316;2022-07-23T01:39:26;90821.63;;;-145.19;100.00
6827;BME280;3451;52.476;13.316;2022-07-23T01:41:53;90821.63;;;-145.19;100.00
6827;BME280;3451;52.476;13.316;2022-07-23T01:44:19;91871.06;;;-145.19;100.00
6827;BME280;3451;52.476;13.316;2022-07-23T01:46:46;91608.69;;;-145.19;100.00
6827;BME280;3451;52.476;13.316;2022-07-23T01:49:12;91083.97;;;-145.19;100.00
6827;BME280;3451;52.476;13.316;2022-07-23T01:51:39;91608.69;;;-145.19;100.00
6827;BME280;3451;52.476;13.316;2022-07-23T01:54:31;91346.31;;;-145.19;100.00
6827;BME280;3451;52.476;13.316;2022-07-23T01:56:58;91871.06;;;-145.19;100.00
6827;BME280;3451;52.476;13.316;2022-07-23T01:59:25;92133.47;;;-145.19;100.00
6827;BME280;3451;52.476;13.316;2022-07-23T02:01:52;91608.69;;;-145.19;100.00
6827;BME280;3451;52.476;13.316;2022-07-23T02:04:23;91608.69;;;-145.19;100.00
6827;BME280;3451;52.476;13.316;2022-07-23T02:06:51;92133.47;;;-145.19;100.00
6827;BME280;3451;52.476;13.316;2022-07-23T02:09:17;92658.31;;;-145.19;100.00
6827;BME280;3451;52.476;13.316;2022-07-23T02:11:44;93183.25;;;-145.19;100.00
6827;BME280;3451;52.476;13.316;2022-07-23T02:14:11;92920.78;;;-145.19;100.00
6827;BME280;3451;52.476;13.316;2022-07-23T02:16:38;92133.47;;;-145.19;100.00
6827;BME280;3451;52.476;13.316;2022-07-23T02:19:04;90821.63;;;-145.19;100.00
6827;BME280;3451;52.476;13.316;2022-07-23T02:21:31;90297.00;;;-145.19;100.00
6827;BME280;3451;52.476;13.316;2022-07-23T02:23:58;89510.22;;;-145.19;100.00
6827;BME280;3451;52.476;13.316;2022-07-23T02:26:24;88985.75;;;-145.19;100.00
6827;BME280;3451;52.476;13.316;2022-07-23T02:28:51;88723.56;;;-145.19;100.00
6827;BME280;3451;52.476;13.316;2022-07-23T02:31:19;88461.38;;;-145.19;100.00
6827;BME280;3451;52.476;13.316;2022-07-23T02:33:46;88199.22;;;-145.19;100.00
6827;BME280;3451;52.476;13.316;2022-07-23T02:36:12;87937.06;;;-145.19;100.00
6827;BME280;3451;52.476;13.316;2022-07-23T02:38:39;87937.06;;;-145.19;100.00
6827;BME280;3451;52.476;13.316;2022-07-23T02:41:05;87937.06;;;-145.19;100.00
6827;BME280;3451;52.476;13.316;2022-07-23T02:43:31;87937.06;;;-145.19;100.00
6827;BME280;3451;52.476;13.316;2022-07-23T02:45:58;87937.06;;;-145.19;100.00
6827;BME280;3451;52.476;13.316;2022-07-23T02:48:24;87674.94;;;-145.19;100.00
6827;BME280;3451;52.476;13.316;2022-07-23T02:50:51;87937.06;;;-145.19;100.00
6827;BME280;3451;52.476;13.316;2022-07-23T02:53:18;87937.06;;;-145.19;100.00
6827;BME280;3451;52.476;13.316;2022-07-23T02:55:45;88199.22;;;-145.19;100.00
6827;BME280;3451;52.476;13.316;2022-07-23T02:58:11;88461.38;;;-145.19;100.00
6827;BME280;3451;52.476;13.316;2022-07-23T03:00:38;88723.56;;;-145.19;100.00
6827;BME280;3451;52.476;13.316;2022-07-23T03:03:04;88723.56;;;-145.19;100.00
6827;BME280;3451;52.476;13.316;2022-07-23T03:05:31;89247.97;;;-145.19;100.00
6827;BME280;3451;52.476;13.316;2022-07-23T03:07:57;89247.97;;;-145.19;100.00
6827;BME280;3451;52.476;13.316;2022-07-23T03:10:23;89510.22;;;-145.19;100.00
6827;BME280;3451;52.476;13.316;2022-07-23T03:12:50;89772.47;;;-145.19;100.00
6827;BME280;3451;52.476;13.316;2022-07-23T03:15:16;90559.31;;;-145.19;100.00
6827;BME280;3451;52.476;13.316;2022-07-23T03:17:43;90559.31;;;-145.19;100.00
6827;BME280;3451;52.476;13.316;2022-07-23T03:20:09;90821.63;;;-145.19;100.00
6827;BME280;3451;52.476;13.316;2022-07-23T03:22:36;90821.63;;;-145.19;100.00
6827;BME280;3451;52.476;13.316;2022-07-23T03:25:02;91346.31;;;-145.19;100.00
6827;BME280;3451;52.476;13.316;2022-07-23T03:27:29;91083.97;;;-145.19;100.00
6827;BME280;3451;52.476;13.316;2022-07-23T03:29:59;91083.97;;;-145.19;100.00
6827;BME280;3451;52.476;13.316;2022-07-23T03:32:25;91083.97;;;-145.19;100.00
6827;BME280;3451;52.476;13.316;2022-07-23T03:34:53;90559.31;;;-145.19;100.00
6827;BME280;3451;52.476;13.316;2022-07-23T03:37:20;90559.31;;;-145.19;100.00
6827;BME280;3451;52.476;13.316;2022-07-23T03:39:47;89510.22;;;-145.19;100.00
6827;BME280;3451;52.476;13.316;2022-07-23T03:42:13;88985.75;;;-145.19;100.00
6827;BME280;3451;52.476;13.316;2022-07-23T03:44:40;87674.94;;;-145.19;100.00
6827;BME280;3451;52.476;13.316;2022-07-23T03:47:06;86626.59;;;-145.19;100.00
6827;BME280;3451;52.476;13.316;2022-07-23T03:49:33;85840.53;;;-145.19;100.00
6827;BME280;3451;52.476;13.316;2022-07-23T03:51:59;84268.81;;;-145.19;100.00
6827;BME280;3451;52.476;13.316;2022-07-23T03:54:26;81912.41;;;-145.19;100.00
6827;BME280;3451;52.476;13.316;2022-07-23T03:56:52;80080.63;;;-145.19;100.00
6827;BME280;3451;52.476;13.316;2022-07-23T03:59:19;77465.22;;;-145.19;100.00
6827;BME280;3451;52.476;13.316;2022-07-23T04:01:49;77203.78;;;-145.19;100.00
6827;BME280;3451;52.476;13.316;2022-07-23T04:04:16;75896.78;;;-145.19;100.00
6827;BME280;3451;52.476;13.316;2022-07-23T04:06:42;75374.13;;;-145.19;100.00
6827;BME280;3451;52.476;13.316;2022-07-23T04:09:08;74851.50;;;-145.19;100.00
6827;BME280;3451;52.476;13.316;2022-07-23T04:11:35;72239.50;;;-145.19;100.00
6827;BME280;3451;52.476;13.316;2022-07-23T04:14:01;72239.50;;;-145.19;100.00
6827;BME280;3451;52.476;13.316;2022-07-23T04:16:28;70285.72;;;-145.19;100.00
6827;BME280;3451;52.476;13.316;2022-07-23T04:18:54;70167.47;;;-145.19;100.00
6827;BME280;3451;52.476;13.316;2022-07-23T04:21:21;69735.22;;;-145.19;100.00
6827;BME280;3451;52.476;13.316;2022-07-23T04:23:47;68764.94;;;-145.19;100.00
6827;BME280;3451;52.476;13.316;2022-07-23T04:26:14;67884.53;;;-145.19;100.00
6827;BME280;3451;52.476;13.316;2022-07-23T04:28:43;66896.38;;;-145.19;100.00
6827;BME280;3451;52.476;13.316;2022-07-23T04:31:09;67495.34;;;-145.19;100.00
6827;BME280;3451;52.476;13.316;2022-07-23T04:33:36;74328.97;;;-145.19;100.00
6827;BME280;3451;52.476;13.316;2022-07-23T04:36:03;79295.81;;;-145.19;100.00
6827;BME280;3451;52.476;13.316;2022-07-23T04:38:30;83221.38;;;-145.19;100.00
6827;BME280;3451;52.476;13.316;2022-07-23T04:40:56;84006.94;;;-145.19;100.00
6827;BME280;3451;52.476;13.316;2022-07-23T04:43:22;87674.94;;;-145.19;100.00
6827;BME280;3451;52.476;13.316;2022-07-23T04:45:49;90034.72;;;-145.19;100.00
6827;BME280;3451;52.476;13.316;2022-07-23T04:48:16;90297.00;;;-145.19;100.00
6827;BME280;3451;52.476;13.316;2022-07-23T04:50:43;92658.31;;;-145.19;100.00
6827;BME280;3451;52.476;13.316;2022-07-23T04:53:10;92658.31;;;-145.19;100.00
6827;BME280;3451;52.476;13.316;2022-07-23T04:55:36;93970.75;;;-145.19;100.00
6827;BME280;3451;52.476;13.316;2022-07-23T04:58:03;95546.25;;;-145.19;100.00
6827;BME280;3451;52.476;13.316;2022-07-23T05:00:29;96071.53;;;-145.19;100.00
6827;BME280;3451;52.476;13.316;2022-07-23T05:02:56;96859.63;;;-145.19;100.00
6827;BME280;3451;52.476;13.316;2022-07-23T05:05:22;97910.63;;;-145.19;100.00
6827;BME280;3451;52.476;13.316;2022-07-23T05:07:49;98173.41;;;-145.19;100.00
6827;BME280;3451;52.476;13.316;2022-07-23T05:10:15;99750.53;;;-145.19;100.00
6827;BME280;3451;52.476;13.316;2022-07-23T05:12:42;101328.28;;;-145.19;100.00
6827;BME280;3451;52.476;13.316;2022-07-23T05:15:08;100276.41;;;-145.19;100.00
6827;BME280;3451;52.476;13.316;2022-07-23T05:17:34;101328.28;;;-145.19;100.00
6827;BME280;3451;52.476;13.316;2022-07-23T05:20:01;102117.38;;;-145.19;100.00
6827;BME280;3451;52.476;13.316;2022-07-23T05:22:28;102643.53;;;-145.19;100.00
6827;BME280;3451;52.476;13.316;2022-07-23T05:24:54;102380.44;;;-145.19;100.00
6827;BME280;3451;52.476;13.316;2022-07-23T05:27:21;101854.34;;;-145.19;100.00
6827;BME280;3451;52.476;13.316;2022-07-23T05:29:47;101591.31;;;-145.19;100.00
6827;BME280;3451;52.476;13.316;2022-07-23T05:32:14;102117.38;;;-145.19;100.00
6827;BME280;3451;52.476;13.316;2022-07-23T05:34:40;102643.53;;;-145.19;100.00
6827;BME280;3451;52.476;13.316;2022-07-23T05:37:07;103432.91;;;-145.19;100.00
6827;BME280;3451;52.476;13.316;2022-07-23T05:39:33;104485.59;;;-145.19;100.00
6827;BME280;3451;52.476;13.316;2022-07-23T05:42:00;105012.06;;;-145.19;100.00
6827;BME280;3451;52.476;13.316;2022-07-23T05:44:26;104748.81;;;-145.19;100.00
6827;BME280;3451;52.476;13.316;2022-07-23T05:46:59;104748.81;;;-145.19;100.00
6827;BME280;3451;52.476;13.316;2022-07-23T05:49:26;104485.59;;;-145.19;100.00
6827;BME280;3451;52.476;13.316;2022-07-23T05:51:52;104748.81;;;-145.19;100.00
6827;BME280;3451;52.476;13.316;2022-07-23T05:54:19;104222.41;;;-145.19;100.00
6827;BME280;3451;52.476;13.316;2022-07-23T05:56:45;104748.81;;;-145.19;100.00
6827;BME280;3451;52.476;13.316;2022-07-23T05:59:12;104485.59;;;-145.19;100.00
6827;BME280;3451;52.476;13.316;2022-07-23T06:01:39;104485.59;;;-145.19;100.00
6827;BME280;3451;52.476;13.316;2022-07-23T06:04:06;104222.41;;;-145.19;100.00
6827;BME280;3451;52.476;13.316;2022-07-23T06:06:32;104222.41;;;-145.19;100.00
6827;BME280;3451;52.476;13.316;2022-07-23T06:08:59;104485.59;;;-145.19;100.00
6827;BME280;3451;52.476;13.316;2022-07-23T06:11:26;104222.41;;;-145.19;100.00
6827;BME280;3451;52.476;13.316;2022-07-23T06:13:52;104748.81;;;-145.19;100.00
6827;BME280;3451;52.476;13.316;2022-07-23T06:16:18;105801.88;;;-145.19;100.00
6827;BME280;3451;52.476;13.316;2022-07-23T06:18:45;106855.22;;;-145.19;100.00
6827;BME280;3451;52.476;13.316;2022-07-23T06:21:11;107908.81;;;-145.19;100.00
6827;BME280;3451;52.476;13.316;2022-07-23T06:23:58;107908.81;;;-145.19;100.00
6827;BME280;3451;52.476;13.316;2022-07-23T06:26:24;107908.81;;;-145.19;100.00
6827;BME280;3451;52.476;13.316;2022-07-23T06:28:51;107908.81;;;-145.19;100.00
6827;BME280;3451;52.476;13.316;2022-07-23T06:31:17;107908.81;;;-145.19;100.00
6827;BME280;3451;52.476;13.316;2022-07-23T06:33:44;108172.25;;;-145.19;100.00
6827;BME280;3451;52.476;13.316;2022-07-23T06:36:10;108172.25;;;-145.19;100.00
6827;BME280;3451;52.476;13.316;2022-07-23T06:38:36;108435.72;;;-145.19;100.00
6827;BME280;3451;52.476;13.316;2022-07-23T06:41:03;108435.72;;;-145.19;100.00
6827;BME280;3451;52.476;13.316;2022-07-23T06:43:30;108435.72;;;-145.19;100.00
6827;BME280;3451;52.476;13.316;2022-07-23T06:45:57;108435.72;;;-145.19;100.00
6827;BME280;3451;52.476;13.316;2022-07-23T06:48:24;108699.19;;;-145.19;100.00
6827;BME280;3451;52.476;13.316;2022-07-23T06:50:50;108699.19;;;-145.19;100.00
6827;BME280;3451;52.476;13.316;2022-07-23T06:53:18;108699.19;;;-145.19;100.00
6827;BME280;3451;52.476;13.316;2022-07-23T06:55:45;108435.72;;;-145.19;100.00
6827;BME280;3451;52.476;13.316;2022-07-23T06:58:11;108435.72;;;-145.19;100.00
6827;BME280;3451;52.476;13.316;2022-07-23T07:00:40;108699.19;;;-145.19;100.00
6827;BME280;3451;52.476;13.316;2022-07-23T07:03:07;108699.19;;;-145.19;100.00
6827;BME280;3451;52.476;13.316;2022-07-23T07:05:33;108699.19;;;-145.19;100.00
6827;BME280;3451;52.476;13.316;2022-07-23T07:08:00;108962.69;;;-145.19;100.00
6827;BME280;3451;52.476;13.316;2022-07-23T07:10:26;108699.19;;;-145.19;100.00
6827;BME280;3451;52.476;13.316;2022-07-23T07:12:52;108962.69;;;-145.19;100.00
6827;BME280;3451;52.476;13.316;2022-07-23T07:15:19;109226.19;;;-145.19;100.00
6827;BME280;3451;52.476;13.316;2022-07-23T07:17:45;109753.25;;;-145.19;100.00
6827;BME280;3451;52.476;13.316;2022-07-23T07:20:12;109753.25;;;-145.19;100.00
6827;BME280;3451;52.476;13.316;2022-07-23T07:22:39;109753.25;;;-145.19;100.00
6827;BME280;3451;52.476;13.316;2022-07-23T07:25:06;109489.72;;;-145.19;100.00
6827;BME280;3451;52.476;13.316;2022-07-23T07:27:33;109753.25;;;-145.19;100.00
6827;BME280;3451;52.476;13.316;2022-07-23T07:30:00;110016.81;;;-145.19;100.00
6827;BME280;3451;52.476;13.316;2022-07-23T07:32:26;110544.00;;;-145.19;100.00
6827;BME280;3451;52.476;13.316;2022-07-23T07:35:12;110544.00;;;-145.19;100.00
6827;BME280;3451;52.476;13.316;2022-07-23T07:37:39;110280.41;;;-145.19;100.00
6827;BME280;3451;52.476;13.316;2022-07-23T07:40:06;110280.41;;;-145.19;100.00
6827;BME280;3451;52.476;13.316;2022-07-23T07:42:33;110544.00;;;-145.19;100.00
6827;BME280;3451;52.476;13.316;2022-07-23T07:44:59;110544.00;;;-145.19;100.00
6827;BME280;3451;52.476;13.316;2022-07-23T07:47:26;110016.81;;;-145.19;100.00
6827;BME280;3451;52.476;13.316;2022-07-23T07:49:52;110016.81;;;-145.19;100.00
6827;BME280;3451;52.476;13.316;2022-07-23T07:52:19;110280.41;;;-145.19;100.00
6827;BME280;3451;52.476;13.316;2022-07-23T07:54:46;110544.00;;;-145.19;100.00
6827;BME280;3451;52.476;13.316;2022-07-23T07:57:12;109753.25;;;-145.19;100.00
6827;BME280;3451;52.476;13.316;2022-07-23T07:59:40;109489.72;;;-145.19;100.00
6827;BME280;3451;52.476;13.316;2022-07-23T08:02:06;108962.69;;;-145.19;100.00
6827;BME280;3451;52.476;13.316;2022-07-23T08:04:33;109226.19;;;-145.19;100.00
6827;BME280;3451;52.476;13.316;2022-07-23T08:06:59;108699.19;;;-145.19;100.00
6827;BME280;3451;52.476;13.316;2022-07-23T08:09:25;108172.25;;;-145.19;100.00
6827;BME280;3451;52.476;13.316;2022-07-23T08:11:52;108435.72;;;-145.19;100.00
6827;BME280;3451;52.476;13.316;2022-07-23T08:14:19;107381.97;;;-145.19;100.00
6827;BME280;3451;52.476;13.316;2022-07-23T08:16:45;105275.31;;;-145.19;100.00
6827;BME280;3451;52.476;13.316;2022-07-23T08:19:32;104485.59;;;-145.19;100.00
6827;BME280;3451;52.476;13.316;2022-07-23T08:21:58;101854.34;;;-145.19;100.00
6827;BME280;3451;52.476;13.316;2022-07-23T08:24:25;99487.66;;;-145.19;100.00
6827;BME280;3451;52.476;13.316;2022-07-23T08:26:51;95546.25;;;-145.19;100.00
6827;BME280;3451;52.476;13.316;2022-07-23T08:29:17;91871.06;;;-145.19;100.00
6827;BME280;3451;52.476;13.316;2022-07-23T08:31:50;86626.59;;;-145.19;100.00
6827;BME280;3451;52.476;13.316;2022-07-23T08:34:16;82959.53;;;-145.19;100.00
6827;BME280;3451;52.476;13.316;2022-07-23T08:36:43;80603.91;;;-145.19;100.00
6827;BME280;3451;52.476;13.316;2022-07-23T08:39:09;82697.75;;;-145.19;100.00
6827;BME280;3451;52.476;13.316;2022-07-23T08:41:39;77988.16;;;-145.19;100.00
6827;BME280;3451;52.476;13.316;2022-07-23T08:44:07;72186.47;;;-145.19;100.00
6827;BME280;3451;52.476;13.316;2022-07-23T08:46:34;64867.81;;;-145.19;100.00
6827;BME280;3451;52.476;13.316;2022-07-23T08:49:08;63511.94;;;-145.19;100.00
6827;BME280;3451;52.476;13.316;2022-07-23T08:51:35;60982.59;;;-145.19;100.00
6827;BME280;3451;52.476;13.316;2022-07-23T08:54:02;58623.63;;;-145.19;100.00
6827;BME280;3451;52.476;13.316;2022-07-23T08:56:29;56209.16;;;-145.19;100.00
6827;BME280;3451;52.476;13.316;2022-07-23T08:58:55;55441.25;;;-145.19;100.00
6827;BME280;3451;52.476;13.316;2022-07-23T09:01:22;57058.53;;;-145.19;100.00
6827;BME280;3451;52.476;13.316;2022-07-23T09:03:48;54421.63;;;-145.19;100.00
6827;BME280;3451;52.476;13.316;2022-07-23T09:06:15;55095.91;;;-145.19;100.00
6827;BME280;3451;52.476;13.316;2022-07-23T09:08:43;53191.13;;;-145.19;100.00
6827;BME280;3451;52.476;13.316;2022-07-23T09:11:20;54446.00;;;-145.19;100.00
6827;BME280;3451;52.476;13.316;2022-07-23T09:13:52;54121.06;;;-145.19;100.00
6827;BME280;3451;52.476;13.316;2022-07-23T09:16:24;53126.16;;;-145.19;100.00
6827;BME280;3451;52.476;13.316;2022-07-23T09:18:59;53538.31;;;-145.19;100.00
6827;BME280;3451;52.476;13.316;2022-07-23T09:21:36;53463.19;;;-145.19;100.00
6827;BME280;3451;52.476;13.316;2022-07-23T09:24:11;52860.22;;;-145.19;100.00
6827;BME280;3451;52.476;13.316;2022-07-23T09:26:43;52364.91;;;-145.19;100.00
6827;BME280;3451;52.476;13.316;2022-07-23T09:29:22;52139.63;;;-145.19;100.00
6827;BME280;3451;52.476;13.316;2022-07-23T09:31:54;52659.25;;;-145.19;100.00
6827;BME280;3451;52.476;13.316;2022-07-23T09:34:34;52541.50;;;-145.19;100.00
6827;BME280;3451;52.476;13.316;2022-07-23T09:37:14;53617.50;;;-145.19;100.00
6827;BME280;3451;52.476;13.316;2022-07-23T09:39:42;52448.13;;;-145.19;100.00
6827;BME280;3451;52.476;13.316;2022-07-23T09:42:27;52163.97;;;-145.19;100.00
6827;BME280;3451;52.476;13.316;2022-07-23T09:44:58;51733.69;;;-145.19;100.00
6827;BME280;3451;52.476;13.316;2022-07-23T09:47:27;51790.53;;;-145.19;100.00
6827;BME280;3451;52.476;13.316;2022-07-23T09:50:08;51380.59;;;-145.19;100.00
6827;BME280;3451;52.476;13.316;2022-07-23T09:52:42;51143.16;;;-145.19;100.00
6827;BME280;3451;52.476;13.316;2022-07-23T09:55:10;51149.25;;;-145.19;100.00
6827;BME280;3451;52.476;13.316;2022-07-23T09:57:37;51068.09;;;-145.19;100.00
6827;BME280;3451;52.476;13.316;2022-07-23T10:00:08;50982.88;;;-145.19;100.00
6827;BME280;3451;52.476;13.316;2022-07-23T10:02:37;50999.09;;;-145.19;100.00
6827;BME280;3451;52.476;13.316;2022-07-23T10:05:04;50857.06;;;-145.19;100.00
6827;BME280;3451;52.476;13.316;2022-07-23T10:07:33;50678.50;;;-145.19;100.00
6827;BME280;3451;52.476;13.316;2022-07-23T10:10:03;50633.88;;;-145.19;100.00
6827;BME280;3451;52.476;13.316;2022-07-23T10:12:29;50426.94;;;-145.19;100.00
6827;BME280;3451;52.476;13.316;2022-07-23T10:15:04;50443.16;;;-145.19;100.00
6827;BME280;3451;52.476;13.316;2022-07-23T10:17:32;50589.25;;;-145.19;100.00
6827;BME280;3451;52.476;13.316;2022-07-23T10:19:59;50390.41;;;-145.19;100.00
6827;BME280;3451;52.476;13.316;2022-07-23T10:22:28;50266.66;;;-145.19;100.00
6827;BME280;3451;52.476;13.316;2022-07-23T10:27:48;50017.16;;;-145.19;100.00
6827;BME280;3451;52.476;13.316;2022-07-23T10:30:26;50009.03;;;-145.19;100.00
6827;BME280;3451;52.476;13.316;2022-07-23T10:33:20;49960.34;;;-145.19;100.00
6827;BME280;3451;52.476;13.316;2022-07-23T10:36:32;49879.19;;;-145.19;100.00
6827;BME280;3451;52.476;13.316;2022-07-23T10:39:22;49891.38;;;-145.19;100.00
6827;BME280;3451;52.476;13.316;2022-07-23T10:41:51;50025.25;;;-145.19;100.00
6827;BME280;3451;52.476;13.316;2022-07-23T10:49:44;49712.88;;;-145.19;100.00
6827;BME280;3451;52.476;13.316;2022-07-23T10:54:54;49562.75;;;-145.19;100.00
6827;BME280;3451;52.476;13.316;2022-07-23T10:57:26;49548.56;;;-145.19;100.00
6827;BME280;3451;52.476;13.316;2022-07-23T11:02:35;49481.63;;;-145.19;100.00
6827;BME280;3451;52.476;13.316;2022-07-23T11:05:10;49398.47;;;-145.19;100.00
6827;BME280;3451;52.476;13.316;2022-07-23T11:10:43;49611.44;;;-145.19;97.73
6827;BME280;3451;52.476;13.316;2022-07-23T11:16:05;49530.31;;;-145.19;99.07
6827;BME280;3451;52.476;13.316;2022-07-23T11:32:18;49737.22;;;-145.19;98.48
6827;BME280;3451;52.476;13.316;2022-07-23T11:34:47;49479.59;;;-145.19;100.00
6827;BME280;3451;52.476;13.316;2022-07-23T11:37:37;49765.59;;;-145.19;100.00
6827;BME280;3451;52.476;13.316;2022-07-23T11:40:07;49589.13;;;-145.19;100.00
6827;BME280;3451;52.476;13.316;2022-07-23T11:42:39;49771.69;;;-145.19;100.00
6827;BME280;3451;52.476;13.316;2022-07-23T11:45:17;49798.06;;;-145.19;100.00
6827;BME280;3451;52.476;13.316;2022-07-23T11:47:43;49798.06;;;-145.19;100.00
6827;BME280;3451;52.476;13.316;2022-07-23T11:50:10;49789.94;;;-145.19;100.00
6827;BME280;3451;52.476;13.316;2022-07-23T11:52:36;49791.97;;;-145.19;100.00
6827;BME280;3451;52.476;13.316;2022-07-23T11:55:09;49936.00;;;-145.19;100.00
6827;BME280;3451;52.476;13.316;2022-07-23T11:57:38;49976.56;;;-145.19;100.00
6827;BME280;3451;52.476;13.316;2022-07-23T12:00:30;49986.72;;;-145.19;100.00
6827;BME280;3451;52.476;13.316;2022-07-23T12:03:05;49984.69;;;-145.19;100.00
6827;BME280;3451;52.476;13.316;2022-07-23T12:05:34;50053.66;;;-145.19;100.00
6827;BME280;3451;52.476;13.316;2022-07-23T12:08:04;50142.91;;;-145.19;100.00
6827;BME280;3451;52.476;13.316;2022-07-23T12:10:38;50136.84;;;-145.19;100.00
6827;BME280;3451;52.476;13.316;2022-07-23T12:13:12;50159.16;;;-145.19;100.00
6827;BME280;3451;52.476;13.316;2022-07-23T12:15:41;50217.97;;;-145.19;100.00
6827;BME280;3451;52.476;13.316;2022-07-23T12:18:11;50268.69;;;-145.19;100.00
6827;BME280;3451;52.476;13.316;2022-07-23T12:20:40;50325.50;;;-145.19;100.00
6827;BME280;3451;52.476;13.316;2022-07-23T12:23:09;50374.19;;;-145.19;100.00
6827;BME280;3451;52.476;13.316;2022-07-23T12:25:39;50483.75;;;-145.19;100.00
6827;BME280;3451;52.476;13.316;2022-07-23T12:28:14;50550.69;;;-145.19;100.00
6827;BME280;3451;52.476;13.316;2022-07-23T12:33:25;50808.38;;;-145.19;98.57
6827;BME280;3451;52.476;13.316;2022-07-23T12:35:53;50913.88;;;-145.19;97.90
6827;BME280;3451;52.476;13.316;2022-07-23T12:38:22;50930.13;;;-145.19;97.63
6827;BME280;3451;52.476;13.316;2022-07-23T12:40:56;50901.72;;;-145.19;100.00
6827;BME280;3451;52.476;13.316;2022-07-23T12:51:08;51262.88;;;-145.19;93.50
6827;BME280;3451;52.476;13.316;2022-07-23T12:53:48;51167.53;;;-145.19;98.79
6827;BME280;3451;52.476;13.316;2022-07-23T12:56:38;51256.81;;;-145.19;95.81
6827;BME280;3451;52.476;13.316;2022-07-23T12:59:09;51285.22;;;-145.19;94.90
6827;BME280;3451;52.476;13.316;2022-07-23T13:01:45;51250.72;;;-145.19;96.73
6827;BME280;3451;52.476;13.316;2022-07-23T13:04:20;51303.47;;;-145.19;95.40
6827;BME280;3451;52.476;13.316;2022-07-23T13:06:53;51425.22;;;-145.19;92.70
6827;BME280;3451;52.476;13.316;2022-07-23T13:09:22;51417.13;;;-145.19;94.11
6827;BME280;3451;52.476;13.316;2022-07-23T13:11:52;51429.28;;;-145.19;94.95
6827;BME280;3451;52.476;13.316;2022-07-23T13:14:22;51419.16;;;-145.19;95.11
6827;BME280;3451;52.476;13.316;2022-07-23T13:16:51;51437.41;;;-145.19;94.64
6827;BME280;3451;52.476;13.316;2022-07-23T13:19:18;51398.84;;;-145.19;95.02
6827;BME280;3451;52.476;13.316;2022-07-23T13:21:47;51433.34;;;-145.19;95.24
6827;BME280;3451;52.476;13.316;2022-07-23T13:24:14;51482.06;;;-145.19;94.80
6827;BME280;3451;52.476;13.316;2022-07-23T13:26:40;51504.38;;;-145.19;93.62
6827;BME280;3451;52.476;13.316;2022-07-23T13:29:07;51555.09;;;-145.19;93.08